Time;durP1;ratioP1;P1;durP2;ratioP2;P2;SDS_P1;SDS_P2;PMS_P1;PMS_P2;Temp;Humidity;BMP_temperature;BMP_pressure;BME280_temperature;BME280_humidity;BME280_pressure;Samples;Min_cycle;Max_cycle;Signal;HPM_P1;HPM_P2
2022/07/10 00:01:59;;;;;;;70.00;3.80;;;17.40;42.60;;;;;;5075112;28;20518;-86
2022/07/10 00:04:27;;;;;;;69.07;5.17;;;17.40;42.40;;;;;;5057451;28;20418;-86
2022/07/10 00:06:55;;;;;;;67.50;4.30;;;17.50;40.60;;;;;;5075306;28;20708;-87
2022/07/10 00:09:22;;;;;;;66.00;4.00;;;17.40;41.20;;;;;;5075251;28;20403;-86
2022/07/10 00:11:51;;;;;;;68.90;4.03;;;17.30;41.00;;;;;;5056859;28;20907;-86
2022/07/10 00:14:24;;;;;;;66.83;3.97;;;17.30;41.30;;;;;;5074989;28;20885;-86
2022/07/10 00:16:49;;;;;;;67.30;4.50;;;17.30;41.40;;;;;;5056859;28;20416;-87
2022/07/10 00:19:15;;;;;;;70.43;3.90;;;17.30;43.10;;;;;;5074806;28;20407;-86
2022/07/10 00:21:41;;;;;;;65.97;4.67;;;17.20;42.30;;;;;;5074961;28;20198;-86
2022/07/10 00:24:07;;;;;;;67.50;4.40;;;17.20;43.60;;;;;;5056693;28;20164;-87
2022/07/10 00:26:32;;;;;;;68.90;5.30;;;17.10;45.10;;;;;;5057606;28;20171;-86
2022/07/10 00:28:58;;;;;;;67.17;4.63;;;17.10;44.60;;;;;;5056672;28;20200;-86
2022/07/10 00:31:24;;;;;;;68.50;4.57;;;17.10;44.50;;;;;;5056570;28;20168;-86
2022/07/10 00:33:51;;;;;;;72.10;5.77;;;17.00;46.00;;;;;;5056914;28;20218;-86
2022/07/10 00:36:19;;;;;;;67.73;5.53;;;17.00;47.50;;;;;;5074707;28;20494;-86
2022/07/10 00:38:48;;;;;;;68.87;6.70;;;17.00;48.60;;;;;;5056749;28;20456;-87
2022/07/10 00:41:15;;;;;;;70.30;4.90;;;17.10;47.60;;;;;;5056591;28;20505;-86
2022/07/10 00:43:58;;;;;;;70.53;5.67;;;17.10;47.10;;;;;;5056676;28;20413;-86
2022/07/10 00:46:26;;;;;;;66.90;4.63;;;17.00;46.50;;;;;;5075110;28;20398;-87
2022/07/10 00:48:52;;;;;;;66.50;5.83;;;17.00;46.10;;;;;;5073451;28;20423;-86
2022/07/10 00:51:20;;;;;;;67.57;5.60;;;16.90;48.50;;;;;;5074169;28;20421;-87
2022/07/10 00:53:47;;;;;;;68.10;6.50;;;16.80;49.30;;;;;;5074210;28;20439;-87
2022/07/10 00:56:19;;;;;;;67.07;5.40;;;16.90;49.70;;;;;;5056415;28;20401;-87
2022/07/10 00:58:46;;;;;;;70.50;6.10;;;16.90;49.60;;;;;;5055966;28;20439;-87
2022/07/10 01:01:12;;;;;;;68.37;6.17;;;16.90;49.20;;;;;;5056251;28;20502;-86
2022/07/10 01:03:38;;;;;;;66.00;4.00;;;17.00;49.40;;;;;;5074142;28;20786;-87
2022/07/10 01:06:03;;;;;;;67.07;4.70;;;16.90;46.70;;;;;;5055919;28;20417;-86
2022/07/10 01:08:30;;;;;;;67.10;5.10;;;16.80;49.70;;;;;;5055866;28;20202;-86
2022/07/10 01:10:58;;;;;;;67.87;5.10;;;16.80;49.90;;;;;;5074059;28;20615;-86
2022/07/10 01:13:24;;;;;;;68.27;6.83;;;16.60;52.40;;;;;;5056112;28;20421;-87
2022/07/10 01:15:51;;;;;;;67.00;5.20;;;16.60;53.30;;;;;;5055667;28;20404;-86
2022/07/10 01:18:16;;;;;;;68.17;5.67;;;16.70;51.50;;;;;;5073823;28;20424;-86
2022/07/10 01:20:43;;;;;;;67.57;5.73;;;16.70;50.70;;;;;;5055950;28;20421;-86
2022/07/10 01:23:08;;;;;;;67.77;5.90;;;16.70;53.00;;;;;;5055840;28;20809;-87
2022/07/10 01:25:55;;;;;;;68.87;6.70;;;16.60;52.80;;;;;;5073865;28;20440;-86
2022/07/10 01:28:22;;;;;;;68.47;6.30;;;16.70;52.00;;;;;;5055475;28;20196;-87
2022/07/10 01:30:49;;;;;;;67.37;5.00;;;16.60;53.70;;;;;;5073738;28;20422;-87
2022/07/10 01:33:17;;;;;;;67.07;5.77;;;16.70;53.80;;;;;;5055855;28;20421;-86
2022/07/10 01:35:43;;;;;;;68.20;5.13;;;16.70;53.00;;;;;;5055780;28;20974;-87
2022/07/10 01:38:12;;;;;;;67.50;5.40;;;16.70;53.00;;;;;;5055229;28;20462;-86
2022/07/10 01:40:40;;;;;;;66.17;5.13;;;16.80;53.00;;;;;;5073351;28;20417;-86
2022/07/10 01:43:06;;;;;;;67.87;6.17;;;16.80;53.90;;;;;;5073264;28;20448;-86
2022/07/10 01:45:32;;;;;;;67.87;5.57;;;16.80;54.40;;;;;;5073484;28;20416;-87
2022/07/10 01:47:58;;;;;;;66.77;5.50;;;16.80;54.20;;;;;;5073178;28;20188;-86
2022/07/10 01:50:24;;;;;;;68.60;6.40;;;16.80;54.10;;;;;;5073546;28;20463;-86
2022/07/10 01:52:49;;;;;;;68.60;5.87;;;16.80;54.60;;;;;;5073239;28;20168;-86
2022/07/10 01:55:16;;;;;;;68.30;6.87;;;16.80;54.60;;;;;;5055238;28;20182;-86
2022/07/10 01:57:42;;;;;;;67.23;5.73;;;16.80;55.10;;;;;;5073267;28;20190;-87
2022/07/10 02:00:09;;;;;;;67.07;6.20;;;16.80;55.90;;;;;;5072841;28;20841;-87
2022/07/10 02:02:35;;;;;;;67.73;5.23;;;16.80;56.60;;;;;;5055050;28;20456;-87
2022/07/10 02:05:01;;;;;;;67.40;8.97;;;16.80;58.10;;;;;;5073412;28;20399;-86
2022/07/10 02:07:27;;;;;;;67.20;7.10;;;16.70;60.00;;;;;;5073018;28;20552;-87
2022/07/10 02:09:52;;;;;;;68.27;9.60;;;16.70;59.90;;;;;;5073035;28;20430;-86
2022/07/10 02:12:18;;;;;;;70.00;10.70;;;16.60;61.80;;;;;;5054978;28;20283;-87
2022/07/10 02:14:44;;;;;;;69.80;9.10;;;16.60;63.00;;;;;;5072981;28;20167;-86
2022/07/10 02:17:12;;;;;;;67.80;10.13;;;16.60;62.90;;;;;;5072907;28;20190;-87
2022/07/10 02:19:40;;;;;;;69.40;9.50;;;16.60;64.60;;;;;;5073235;28;20655;-86
2022/07/10 02:22:06;;;;;;;67.97;9.47;;;16.50;66.60;;;;;;5072918;28;20460;-86
2022/07/10 02:24:32;;;;;;;70.00;12.10;;;16.50;66.10;;;;;;5072932;28;20492;-86
2022/07/10 02:26:57;;;;;;;70.63;10.47;;;16.50;68.60;;;;;;5072781;28;20187;-86
2022/07/10 02:29:24;;;;;;;70.40;12.23;;;16.50;68.80;;;;;;5072836;28;20171;-86
2022/07/10 02:31:50;;;;;;;73.03;13.70;;;16.50;70.60;;;;;;5073127;28;20160;-86
2022/07/10 02:34:15;;;;;;;69.30;13.60;;;16.50;70.10;;;;;;5145714;22;20490;-82
2022/07/10 02:36:41;;;;;;;68.97;9.07;;;16.60;69.90;;;;;;5082519;28;20252;-82
2022/07/10 02:39:08;;;;;;;72.10;10.83;;;16.60;68.70;;;;;;5082158;28;20159;-82
2022/07/10 02:41:35;;;;;;;71.07;12.23;;;16.60;68.30;;;;;;5078220;28;20283;-82
2022/07/10 02:44:02;;;;;;;70.30;10.00;;;16.60;67.50;;;;;;5078832;28;20911;-82
2022/07/10 02:46:28;;;;;;;70.33;11.50;;;16.60;69.40;;;;;;5078384;28;20421;-82
2022/07/10 02:48:53;;;;;;;69.10;9.07;;;16.70;67.40;;;;;;5079562;28;20418;-82
2022/07/10 02:51:19;;;;;;;67.10;7.80;;;16.70;66.70;;;;;;5078796;28;20189;-82
2022/07/10 02:53:45;;;;;;;67.93;9.23;;;16.70;66.50;;;;;;5080091;28;20174;-82
2022/07/10 02:56:10;;;;;;;71.40;9.57;;;16.70;64.40;;;;;;5077747;28;20171;-82
2022/07/10 02:58:39;;;;;;;70.10;8.77;;;16.70;66.00;;;;;;5078556;28;20190;-82
2022/07/10 03:01:05;;;;;;;72.20;9.40;;;16.70;64.50;;;;;;5077511;28;20178;-82
2022/07/10 03:03:31;;;;;;;67.37;9.37;;;16.70;66.10;;;;;;5080433;28;20509;-82
2022/07/10 03:05:56;;;;;;;68.27;7.30;;;16.70;65.50;;;;;;5078146;28;20449;-82
2022/07/10 03:08:22;;;;;;;68.90;9.47;;;16.70;64.20;;;;;;5078263;28;20274;-82
2022/07/10 03:10:50;;;;;;;67.40;8.30;;;16.70;64.70;;;;;;5080048;28;20222;-82
2022/07/10 03:13:16;;;;;;;74.20;10.23;;;16.50;67.30;;;;;;5082880;28;20165;-82
2022/07/10 03:15:42;;;;;;;68.03;7.77;;;16.50;69.70;;;;;;5083027;28;20420;-82
2022/07/10 03:18:07;;;;;;;77.53;9.90;;;16.40;70.70;;;;;;5080838;28;20202;-82
2022/07/10 03:20:33;;;;;;;80.87;13.60;;;16.40;70.60;;;;;;5082064;28;20170;-82
2022/07/10 03:22:59;;;;;;;74.03;11.37;;;16.40;71.70;;;;;;5082969;28;20557;-82
2022/07/10 03:25:24;;;;;;;70.10;10.90;;;16.40;70.40;;;;;;5082825;28;20158;-82
2022/07/10 03:27:50;;;;;;;69.27;12.10;;;16.40;71.50;;;;;;5082819;28;20195;-82
2022/07/10 03:30:16;;;;;;;67.77;11.50;;;16.40;71.50;;;;;;5082398;28;20167;-82
2022/07/10 03:32:41;;;;;;;69.67;11.00;;;16.40;71.20;;;;;;5081980;28;20236;-82
2022/07/10 03:35:07;;;;;;;68.60;9.57;;;16.40;69.70;;;;;;5082618;28;20216;-82
2022/07/10 03:37:33;;;;;;;75.50;12.03;;;16.40;70.70;;;;;;5083222;28;20247;-82
2022/07/10 03:39:59;;;;;;;69.73;7.40;;;16.40;69.80;;;;;;5083362;28;20175;-82
2022/07/10 03:42:24;;;;;;;75.30;10.07;;;16.40;70.40;;;;;;5083264;28;20527;-82
2022/07/10 03:44:50;;;;;;;68.00;9.10;;;16.40;70.10;;;;;;5081940;28;20184;-82
2022/07/10 03:47:16;;;;;;;69.13;11.17;;;16.30;71.50;;;;;;5082901;28;20669;-82
2022/07/10 03:49:41;;;;;;;68.97;10.30;;;16.30;72.80;;;;;;5083388;28;20197;-82
2022/07/10 03:52:08;;;;;;;68.67;8.93;;;16.30;71.30;;;;;;5082222;28;20164;-82
2022/07/10 03:54:34;;;;;;;67.50;9.90;;;16.30;70.60;;;;;;5082484;28;20408;-82
2022/07/10 03:59:44;;;;;;;68.73;7.97;;;16.30;71.30;;;;;;5080924;28;20442;-82
2022/07/10 04:02:09;;;;;;;67.87;8.37;;;16.40;70.80;;;;;;5081971;28;20438;-82
2022/07/10 04:04:35;;;;;;;67.27;9.40;;;16.30;70.40;;;;;;5081696;28;20412;-82
2022/07/10 04:07:02;;;;;;;69.47;8.90;;;16.40;70.00;;;;;;5081876;28;20187;-82
2022/07/10 04:09:27;;;;;;;67.73;8.60;;;16.40;69.60;;;;;;5082684;28;20181;-82
2022/07/10 04:11:53;;;;;;;68.67;8.97;;;16.40;69.60;;;;;;5081314;28;20412;-82
2022/07/10 04:14:19;;;;;;;68.47;11.70;;;16.40;73.00;;;;;;5081994;28;20202;-82
2022/07/10 04:16:44;;;;;;;68.10;9.83;;;16.40;71.40;;;;;;5080968;28;20170;-82
2022/07/10 04:19:10;;;;;;;68.40;8.00;;;16.50;71.10;;;;;;5081044;28;20427;-82
2022/07/10 04:21:36;;;;;;;67.17;9.27;;;16.50;69.60;;;;;;5080388;28;20196;-82
2022/07/10 04:24:03;;;;;;;69.33;8.97;;;16.50;70.60;;;;;;5078990;28;20261;-82
2022/07/10 04:26:28;;;;;;;66.97;7.60;;;16.50;70.90;;;;;;5080232;28;20411;-82
2022/07/10 04:28:54;;;;;;;72.20;10.93;;;16.60;69.10;;;;;;5080717;28;20425;-82
2022/07/10 04:31:20;;;;;;;67.50;8.60;;;16.60;71.30;;;;;;5079539;28;20246;-82
2022/07/10 04:33:45;;;;;;;67.83;9.60;;;16.60;70.80;;;;;;5080559;28;20271;-82
2022/07/10 04:36:11;;;;;;;69.03;12.30;;;16.60;71.30;;;;;;5080599;28;20206;-82
2022/07/10 04:38:37;;;;;;;72.93;9.40;;;16.60;72.30;;;;;;5079349;28;20222;-82
2022/07/10 04:41:03;;;;;;;69.17;8.77;;;16.70;71.00;;;;;;5080686;28;20631;-82
2022/07/10 04:43:30;;;;;;;67.57;6.83;;;16.80;77.50;;;;;;5081515;28;20291;-82
2022/07/10 04:45:56;;;;;;;65.83;4.50;;;17.10;75.50;;;;;;5080533;28;20774;-82
2022/07/10 04:48:22;;;;;;;66.47;4.30;;;17.40;71.90;;;;;;5081120;28;20437;-82
2022/07/10 04:50:47;;;;;;;68.20;3.40;;;17.80;59.20;;;;;;5083885;28;20255;-82
2022/07/10 04:53:13;;;;;;;70.53;4.00;;;18.10;54.20;;;;;;5082049;28;20168;-82
2022/07/10 04:55:39;;;;;;;65.83;3.40;;;18.40;46.70;;;;;;5079913;28;20606;-82
2022/07/10 04:58:04;;;;;;;67.70;3.93;;;18.50;41.20;;;;;;5080069;28;20188;-82
2022/07/10 05:00:33;;;;;;;68.93;5.20;;;18.50;37.10;;;;;;5080401;28;20172;-82
2022/07/10 05:02:58;;;;;;;68.80;4.37;;;18.60;37.00;;;;;;5079260;28;20192;-82
2022/07/10 05:05:24;;;;;;;67.73;4.47;;;18.70;34.20;;;;;;5081264;28;20398;-82
2022/07/10 05:07:50;;;;;;;66.87;4.93;;;18.60;31.70;;;;;;5080217;28;20184;-82
2022/07/10 05:10:16;;;;;;;69.20;4.40;;;18.40;31.70;;;;;;5081666;28;20172;-82
2022/07/10 05:12:41;;;;;;;68.33;4.50;;;18.20;33.10;;;;;;5080919;28;20172;-82
2022/07/10 05:15:08;;;;;;;68.70;3.90;;;17.80;41.70;;;;;;5080423;28;20195;-82
2022/07/10 05:17:33;;;;;;;67.73;4.00;;;17.70;44.20;;;;;;5083920;28;20183;-82
2022/07/10 05:19:59;;;;;;;71.50;4.60;;;17.70;47.90;;;;;;5084470;28;20944;-82
2022/07/10 05:22:25;;;;;;;71.57;4.83;;;17.60;47.80;;;;;;5084689;28;20663;-83
2022/07/10 05:24:51;;;;;;;66.40;5.27;;;17.50;51.50;;;;;;5084110;28;20257;-80
2022/07/10 05:27:19;;;;;;;66.50;4.67;;;17.40;52.50;;;;;;5083306;28;20428;-82
2022/07/10 05:29:46;;;;;;;68.10;5.37;;;17.40;52.70;;;;;;5081609;28;20243;-82
2022/07/10 05:32:11;;;;;;;67.97;5.27;;;17.40;56.70;;;;;;5082258;28;20399;-82
2022/07/10 05:34:37;;;;;;;69.60;6.63;;;17.50;57.00;;;;;;5081278;28;20486;-82
2022/07/10 05:37:03;;;;;;;67.97;8.40;;;17.40;62.10;;;;;;5081439;28;20190;-82
2022/07/10 05:39:29;;;;;;;70.40;7.30;;;17.30;62.50;;;;;;5081791;28;20168;-82
2022/07/10 05:41:55;;;;;;;67.10;8.23;;;17.20;61.00;;;;;;5082255;28;20505;-82
2022/07/10 05:44:21;;;;;;;71.80;10.43;;;17.10;65.50;;;;;;5081190;28;20698;-82
2022/07/10 05:46:47;;;;;;;77.40;9.50;;;17.10;66.10;;;;;;5083656;28;20398;-82
2022/07/10 05:49:12;;;;;;;67.10;9.73;;;17.00;66.60;;;;;;5083566;28;20167;-82
2022/07/10 05:51:38;;;;;;;66.97;7.30;;;17.00;69.70;;;;;;5083348;28;20179;-82
2022/07/10 05:54:04;;;;;;;69.20;8.20;;;17.00;65.00;;;;;;5084141;28;20192;-82
2022/07/10 05:56:30;;;;;;;68.43;8.67;;;16.90;63.70;;;;;;5084025;28;20170;-82
2022/07/10 05:58:55;;;;;;;70.30;7.73;;;16.90;63.20;;;;;;5083181;28;20435;-82
2022/07/10 06:01:23;;;;;;;70.03;9.60;;;16.90;60.30;;;;;;5085205;28;20184;-81
2022/07/10 06:03:49;;;;;;;69.50;9.80;;;16.70;62.60;;;;;;5084195;28;20176;-82
2022/07/10 06:06:15;;;;;;;73.83;14.60;;;16.60;67.10;;;;;;5083095;28;20400;-82
2022/07/10 06:08:41;;;;;;;69.10;9.30;;;16.40;65.20;;;;;;5083739;28;20182;-82
2022/07/10 06:11:07;;;;;;;69.10;7.30;;;16.50;59.90;;;;;;5085862;28;20401;-83
2022/07/10 06:13:33;;;;;;;68.57;7.40;;;16.60;59.00;;;;;;5085932;28;20412;-82
2022/07/10 06:15:58;;;;;;;66.47;5.17;;;16.80;56.90;;;;;;5083633;28;20175;-83
2022/07/10 06:18:24;;;;;;;66.07;4.70;;;16.90;48.40;;;;;;5081604;28;20187;-83
2022/07/10 06:20:50;;;;;;;68.20;7.47;;;16.80;44.00;;;;;;5080237;28;20164;-82
2022/07/10 06:23:15;;;;;;;68.27;7.30;;;16.80;50.00;;;;;;5082021;28;20241;-82
2022/07/10 06:25:41;;;;;;;70.97;5.50;;;16.90;52.60;;;;;;5082701;28;20160;-82
2022/07/10 06:28:10;;;;;;;72.20;5.50;;;17.00;50.10;;;;;;5081158;28;20194;-82
2022/07/10 06:30:35;;;;;;;66.23;5.07;;;17.00;44.50;;;;;;5080866;28;20160;-82
2022/07/10 06:33:01;;;;;;;67.20;6.03;;;16.80;41.60;;;;;;5081798;28;20508;-82
2022/07/10 06:35:27;;;;;;;73.07;5.67;;;16.80;47.40;;;;;;5082220;28;20154;-82
2022/07/10 06:37:52;;;;;;;69.93;6.60;;;16.90;47.20;;;;;;5081671;28;20198;-82
2022/07/10 06:40:20;;;;;;;66.50;6.33;;;16.90;48.00;;;;;;5082953;28;20179;-82
2022/07/10 06:42:46;;;;;;;66.77;5.87;;;17.00;51.20;;;;;;5083631;28;20184;-82
2022/07/10 06:45:12;;;;;;;68.77;6.80;;;17.00;51.60;;;;;;5084203;28;20492;-82
2022/07/10 06:47:55;;;;;;;67.73;6.60;;;17.00;53.70;;;;;;5087270;28;20718;-82
2022/07/10 06:50:22;;;;;;;70.60;7.80;;;17.10;53.50;;;;;;5087262;28;20163;-82
2022/07/10 06:52:49;;;;;;;67.80;7.33;;;16.90;55.40;;;;;;5085482;28;20833;-82
2022/07/10 06:55:15;;;;;;;67.97;7.70;;;16.80;57.70;;;;;;5086153;28;20405;-83
2022/07/10 06:57:40;;;;;;;67.20;6.60;;;16.80;54.00;;;;;;5084288;28;20416;-82
2022/07/10 07:00:09;;;;;;;65.93;5.73;;;16.90;53.50;;;;;;5084907;28;20441;-81
2022/07/10 07:02:35;;;;;;;74.33;5.77;;;16.90;50.50;;;;;;5083513;28;20223;-82
2022/07/10 07:05:00;;;;;;;68.40;6.00;;;17.10;46.60;;;;;;5085843;28;20417;-82
2022/07/10 07:07:26;;;;;;;68.80;7.50;;;17.10;47.20;;;;;;5085237;28;20226;-82
2022/07/10 07:09:52;;;;;;;67.80;6.20;;;17.00;47.70;;;;;;5086712;28;20164;-82
2022/07/10 07:12:18;;;;;;;69.77;7.10;;;16.90;50.00;;;;;;5087333;28;20182;-82
2022/07/10 07:14:44;;;;;;;70.50;8.77;;;16.90;52.50;;;;;;5088407;28;20383;-83
2022/07/10 07:17:11;;;;;;;68.00;7.87;;;16.80;54.50;;;;;;5088522;28;20189;-82
2022/07/10 07:25:09;;;;;;;71.07;7.50;;;16.90;57.30;;;;;;5085240;28;20410;-82
2022/07/10 07:27:36;;;;;;;69.17;7.80;;;16.90;58.30;;;;;;5084361;28;20448;-83
2022/07/10 07:30:07;;;;;;;66.80;6.23;;;17.10;54.90;;;;;;5087246;28;20421;-83
2022/07/10 07:32:33;;;;;;;68.53;5.83;;;17.10;52.90;;;;;;5086783;28;20420;-82
2022/07/10 07:35:00;;;;;;;68.47;7.83;;;17.10;51.90;;;;;;5087150;28;20458;-82
2022/07/10 07:37:36;;;;;;;70.50;13.03;;;17.00;52.90;;;;;;5087779;28;20486;-82
2022/07/10 07:40:06;;;;;;;71.03;10.00;;;17.00;62.60;;;;;;5087967;28;20417;-82
2022/07/10 07:42:32;;;;;;;69.37;8.60;;;17.10;64.20;;;;;;5087006;28;20442;-82
2022/07/10 07:44:58;;;;;;;68.20;13.30;;;17.30;63.90;;;;;;5087069;28;20433;-82
2022/07/10 07:47:24;;;;;;;71.37;9.87;;;17.30;70.20;;;;;;5089731;28;20180;-82
2022/07/10 07:49:50;;;;;;;69.17;7.80;;;17.40;64.30;;;;;;5088014;28;20282;-82
2022/07/10 07:52:15;;;;;;;67.17;8.97;;;17.40;59.20;;;;;;5087555;28;20402;-82
2022/07/10 07:54:41;;;;;;;69.27;7.17;;;17.40;59.10;;;;;;5088253;28;20170;-82
2022/07/10 07:57:07;;;;;;;68.13;7.10;;;17.40;57.70;;;;;;5087260;28;20187;-82
2022/07/10 07:59:32;;;;;;;65.80;5.83;;;17.30;57.40;;;;;;5086480;28;20191;-82
2022/07/10 08:01:58;;;;;;;67.77;7.03;;;17.30;55.40;;;;;;5086423;28;20203;-82
2022/07/10 08:04:24;;;;;;;69.13;7.90;;;17.30;56.50;;;;;;5087219;28;20523;-82
2022/07/10 08:06:52;;;;;;;68.20;6.87;;;17.20;54.90;;;;;;5085315;28;20171;-82
2022/07/10 08:09:18;;;;;;;70.23;6.30;;;17.30;53.30;;;;;;5084607;28;20171;-82
2022/07/10 08:11:44;;;;;;;68.30;8.40;;;17.30;50.30;;;;;;5086875;28;20474;-82
2022/07/10 08:14:10;;;;;;;69.43;5.30;;;17.60;52.40;;;;;;5085175;28;20896;-82
2022/07/10 08:16:35;;;;;;;66.27;4.80;;;17.70;43.60;;;;;;5085760;28;20456;-82
2022/07/10 08:19:01;;;;;;;68.50;4.97;;;17.80;44.50;;;;;;5084214;28;20193;-82
2022/07/10 08:21:27;;;;;;;69.90;5.00;;;17.90;43.80;;;;;;5086977;28;20176;-81
2022/07/10 08:23:53;;;;;;;67.27;4.50;;;17.90;40.40;;;;;;5086385;28;20164;-82
2022/07/10 08:26:19;;;;;;;68.37;5.17;;;17.80;40.60;;;;;;5084750;28;20167;-82
2022/07/10 08:28:45;;;;;;;71.57;4.60;;;17.60;42.10;;;;;;5085430;28;20422;-81
2022/07/10 08:31:11;;;;;;;70.90;7.60;;;17.40;44.90;;;;;;5083878;28;20403;-82
2022/07/10 08:33:36;;;;;;;67.10;6.10;;;17.20;48.90;;;;;;5162497;22;20312;-89
2022/07/10 08:36:03;;;;;;;66.90;6.03;;;17.20;48.20;;;;;;5095060;28;20165;-87
2022/07/10 08:38:29;;;;;;;67.97;5.73;;;17.30;49.20;;;;;;5094722;28;20194;-87
2022/07/10 08:40:58;;;;;;;69.87;6.30;;;17.40;48.40;;;;;;5094686;28;20431;-87
2022/07/10 08:43:25;;;;;;;73.93;5.83;;;17.60;49.30;;;;;;5076431;28;20214;-87
2022/07/10 08:45:53;;;;;;;67.60;4.37;;;17.80;44.60;;;;;;5094911;28;20928;-87
2022/07/10 08:48:25;;;;;;;66.80;4.00;;;17.80;43.70;;;;;;5076199;28;20787;-88
2022/07/10 08:50:56;;;;;;;66.00;4.27;;;18.10;41.40;;;;;;5094596;28;20374;-87
2022/07/10 08:53:30;;;;;;;68.60;4.37;;;18.20;38.00;;;;;;5076291;28;20916;-87
2022/07/10 08:55:57;;;;;;;67.73;3.90;;;18.40;40.10;;;;;;5094796;28;20382;-87
2022/07/10 08:58:32;;;;;;;71.00;4.90;;;18.30;33.70;;;;;;5094536;28;20421;-88
2022/07/10 09:00:58;;;;;;;68.67;4.53;;;18.20;35.60;;;;;;5094309;28;20757;-87
2022/07/10 09:03:24;;;;;;;70.10;4.90;;;18.20;36.10;;;;;;5094164;28;20437;-88
2022/07/10 09:05:51;;;;;;;68.97;4.90;;;18.30;40.30;;;;;;5076130;28;20191;-87
2022/07/10 09:08:24;;;;;;;66.00;3.90;;;18.20;34.40;;;;;;5076257;28;20233;-87
2022/07/10 09:10:50;;;;;;;66.27;3.93;;;18.30;35.60;;;;;;5075929;28;20521;-89
2022/07/10 09:13:28;;;;;;;72.53;3.73;;;18.40;34.30;;;;;;5095754;28;20472;-89
2022/07/10 09:16:04;;;;;;;67.70;3.57;;;18.60;33.90;;;;;;5075799;28;20413;-88
2022/07/10 09:18:29;;;;;;;69.30;4.23;;;18.90;35.20;;;;;;5075928;28;20519;-88
2022/07/10 09:20:55;;;;;;;69.40;3.60;;;18.90;30.30;;;;;;5075737;28;20496;-88
2022/07/10 09:23:27;;;;;;;72.20;3.60;;;19.00;29.00;;;;;;5094114;28;20191;-88
2022/07/10 09:25:58;;;;;;;65.60;3.30;;;19.00;28.20;;;;;;5075990;28;20179;-89
2022/07/10 09:28:42;;;;;;;68.70;3.33;;;19.00;26.60;;;;;;5094518;28;20953;-88
2022/07/10 09:31:10;;;;;;;65.77;3.47;;;19.00;28.00;;;;;;5094720;28;20437;-89
2022/07/10 09:33:42;;;;;;;69.33;4.47;;;19.10;33.90;;;;;;5093826;28;20884;-89
2022/07/10 09:36:25;;;;;;;69.57;4.90;;;18.90;39.50;;;;;;5093865;28;20409;-89
2022/07/10 09:38:54;;;;;;;69.33;3.60;;;18.90;42.00;;;;;;5075873;28;20442;-89
2022/07/10 09:41:28;;;;;;;68.47;3.97;;;19.10;40.90;;;;;;5075962;28;20417;-88
2022/07/10 09:43:59;;;;;;;68.10;3.23;;;19.10;32.60;;;;;;5078510;28;20440;-88
2022/07/10 09:46:31;;;;;;;66.60;3.30;;;19.10;36.80;;;;;;5075430;28;20884;-89
2022/07/10 09:49:16;;;;;;;69.43;3.70;;;19.10;35.80;;;;;;5093359;28;20417;-88
2022/07/10 09:51:44;;;;;;;66.77;4.87;;;19.00;35.30;;;;;;5093845;28;20390;-89
2022/07/10 09:54:11;;;;;;;66.90;3.50;;;19.00;41.70;;;;;;5075561;28;20420;-89
2022/07/10 09:56:46;;;;;;;67.60;3.63;;;19.20;34.10;;;;;;5076040;28;20405;-89
2022/07/10 09:59:17;;;;;;;65.50;2.80;;;19.40;35.90;;;;;;5076224;28;20417;-89
2022/07/10 10:01:53;;;;;;;69.53;3.43;;;19.30;32.10;;;;;;5093264;28;20455;-89
2022/07/10 10:04:23;;;;;;;65.37;3.03;;;19.40;34.40;;;;;;5076078;28;20749;-89
2022/07/10 10:07:26;;;;;;;66.20;3.00;;;19.30;33.60;;;;;;5093910;28;20491;-90
2022/07/10 10:10:33;;;;;;;65.90;3.03;;;19.30;31.40;;;;;;5062612;28;20911;-89
2022/07/10 10:13:02;;;;;;;70.20;4.07;;;19.10;35.00;;;;;;5075138;28;20430;-89
2022/07/10 10:15:39;;;;;;;67.10;3.70;;;18.90;41.40;;;;;;5075333;28;20421;-89
2022/07/10 10:18:12;;;;;;;66.00;4.67;;;18.70;47.00;;;;;;5075559;28;20473;-89
2022/07/10 10:20:41;;;;;;;69.83;5.23;;;18.50;52.30;;;;;;5076150;28;20410;-89
2022/07/10 10:24:01;;;;;;;67.10;8.80;;;18.40;58.90;;;;;;5079255;28;20452;-89
2022/07/10 10:26:43;;;;;;;67.57;11.20;;;18.20;66.10;;;;;;4987666;28;20905;-89
2022/07/10 10:29:21;;;;;;;69.63;12.57;;;18.10;69.70;;;;;;4979903;28;20472;-90
2022/07/10 10:35:55;;;;;;;71.40;13.50;;;18.20;71.80;;;;;;4897954;28;20433;-90
2022/07/10 10:39:01;;;;;;;75.00;11.60;;;18.40;68.60;;;;;;5078629;28;20441;-87
2022/07/10 10:45:29;;;;;;;68.27;9.27;;;18.70;58.40;;;;;;5089273;28;20429;-89
2022/07/10 10:54:47;;;;;;;;;;;;;;;;;;;;;
2022/07/10 10:57:17;;;;;;;68.70;6.57;;;19.50;60.00;;;;;;4977280;28;20990;-89
2022/07/10 11:10:14;;;;;;;68.10;4.20;;;20.20;33.50;;;;;;5291304;22;20488;-89
2022/07/10 11:16:51;;;;;;;67.87;4.70;;;19.70;38.70;;;;;;4937620;29;20433;-89
2022/07/10 11:23:24;;;;;;;66.87;5.17;;;19.40;41.80;;;;;;4918593;29;20505;-89
2022/07/10 11:26:07;;;;;;;71.67;6.23;;;19.40;48.10;;;;;;4918979;29;20390;-90
2022/07/10 11:29:52;;;;;;;;;;;;;;;;;;;;;
2022/07/10 11:43:43;;;;;;;68.13;6.50;;;19.40;53.90;;;;;;4861594;29;20514;-91
2022/07/10 12:20:52;;;;;;;71.20;12.53;;;19.10;78.50;;;;;;4941119;28;20527;-91
2022/07/10 12:29:41;;;;;;;70.80;10.73;;;19.20;65.70;;;;;;4042347;26;20461;-91
2022/07/10 12:33:18;;;;;;;;;;;;;;;;;;;;;
2022/07/10 12:43:15;;;;;;;68.37;12.73;;;18.80;73.60;;;;;;5074652;28;20441;-91
2022/07/10 12:46:19;;;;;;;68.47;13.60;;;18.50;78.40;;;;;;4976312;28;20414;-88
2022/07/10 12:49:33;;;;;;;72.33;17.80;;;18.30;90.20;;;;;;4973387;28;20834;-88
2022/07/10 12:52:44;;;;;;;;;;;;;;;;;;;;;
2022/07/10 12:55:37;;;;;;;;;;;;;;;;;;;;;
2022/07/10 13:02:18;;;;;;;68.20;12.60;;;18.60;90.60;;;;;;4934573;29;20427;-89
2022/07/10 13:23:42;;;;;;;71.47;10.77;;;19.00;75.30;;;;;;5017316;28;20467;-88
2022/07/10 13:27:43;;;;;;;;;;;;;;;;;;;;;
2022/07/10 13:30:14;;;;;;;67.70;10.20;;;19.10;82.40;;;;;;4919536;29;20428;-88
2022/07/10 13:32:54;;;;;;;68.17;10.83;;;19.30;78.50;;;;;;4918784;29;20424;-88
2022/07/10 13:35:47;;;;;;;69.13;11.17;;;19.50;76.30;;;;;;5013071;28;20416;-88
2022/07/10 13:42:20;;;;;;;68.00;11.10;;;19.70;69.70;;;;;;5027010;28;20451;-86
2022/07/10 13:45:18;;;;;;;68.47;10.50;;;19.80;69.50;;;;;;5014602;28;20412;-89
2022/07/10 13:51:14;;;;;;;66.97;8.70;;;19.80;65.40;;;;;;5030152;28;20400;-89
2022/07/10 14:03:56;;;;;;;;;;;;;;;;;;;;;
2022/07/10 14:14:44;;;;;;;68.03;4.60;;;21.10;61.40;;;;;;4991570;28;20813;-90
2022/07/10 14:18:09;;;;;;;70.00;4.10;;;21.30;45.60;;;;;;4985306;28;20477;-89
2022/07/10 14:21:27;;;;;;;66.40;3.93;;;21.50;33.20;;;;;;4916255;29;20447;-90
2022/07/10 14:24:26;;;;;;;66.93;4.13;;;21.60;37.30;;;;;;4934213;29;20489;-90
2022/07/10 14:27:46;;;;;;;69.30;3.97;;;21.90;34.80;;;;;;4932579;29;20420;-89
2022/07/10 14:30:10;;;;;;;66.97;3.77;;;22.00;32.40;;;;;;4941989;28;20452;-88
2022/07/10 14:35:08;;;;;;;69.23;3.60;;;22.40;24.00;;;;;;5148535;22;20486;-84
2022/07/10 14:37:34;;;;;;;66.77;3.10;;;22.60;30.00;;;;;;5079087;28;20497;-85
2022/07/10 14:40:00;;;;;;;72.53;7.60;;;22.70;25.00;;;;;;5076068;28;20405;-85
2022/07/10 14:42:26;;;;;;;66.17;4.90;;;22.70;11.30;;;;;;5074763;28;20438;-85
2022/07/10 14:44:51;;;;;;;70.17;10.10;;;22.50;15.60;;;;;;5060450;28;20172;-86
2022/07/10 14:47:17;;;;;;;69.80;8.63;;;22.30;9.00;;;;;;5064607;28;20274;-84
2022/07/10 14:49:43;;;;;;;70.07;8.37;;;22.00;10.90;;;;;;5078833;28;20160;-84
2022/07/10 14:52:08;;;;;;;66.50;3.90;;;21.70;15.40;;;;;;5076446;28;20195;-85
2022/07/10 14:54:34;;;;;;;66.70;4.53;;;21.50;27.20;;;;;;5058028;28;20172;-84
2022/07/10 14:57:00;;;;;;;67.90;4.03;;;21.30;23.90;;;;;;5074697;28;20186;-84
2022/07/10 14:59:25;;;;;;;69.90;4.33;;;21.00;28.50;;;;;;5058018;28;20577;-85
2022/07/10 15:01:51;;;;;;;68.87;3.80;;;20.90;30.30;;;;;;5076537;28;22048;-84
2022/07/10 15:04:17;;;;;;;65.80;3.30;;;20.90;31.70;;;;;;5076048;28;20210;-84
2022/07/10 15:06:43;;;;;;;72.97;3.90;;;20.80;38.50;;;;;;5057244;28;20200;-84
2022/07/10 15:09:08;;;;;;;67.60;4.30;;;20.80;36.90;;;;;;5064625;28;20174;-84
2022/07/10 15:11:35;;;;;;;72.87;4.23;;;20.80;36.30;;;;;;5082175;28;20700;-87
2022/07/10 15:14:04;;;;;;;69.50;3.83;;;20.90;38.50;;;;;;5060938;28;20540;-86
2022/07/10 15:16:30;;;;;;;66.90;3.97;;;21.00;37.80;;;;;;5086270;28;20428;-86
2022/07/10 15:18:56;;;;;;;73.17;4.30;;;21.00;33.10;;;;;;5072034;28;20440;-85
2022/07/10 15:21:24;;;;;;;69.17;3.83;;;20.90;35.60;;;;;;5073057;28;20414;-86
2022/07/10 15:23:50;;;;;;;68.03;3.70;;;20.80;39.10;;;;;;5072213;28;20535;-85
2022/07/10 15:26:17;;;;;;;67.07;3.40;;;20.60;38.80;;;;;;5089938;28;20433;-86
2022/07/10 15:28:43;;;;;;;68.20;4.30;;;20.60;38.70;;;;;;5070785;28;20192;-86
2022/07/10 15:31:11;;;;;;;68.97;4.23;;;20.40;35.90;;;;;;5089103;28;20416;-86